createdAt,value
2023-05-18T00:00:45.963Z,44.18
2023-05-18T00:03:31.660Z,44.08
2023-05-18T00:06:16.854Z,43.97
2023-05-18T00:09:01.992Z,43.86
2023-05-18T00:11:47.658Z,43.95
2023-05-18T00:14:32.932Z,44.27
2023-05-18T00:17:21.309Z,43.97
2023-05-18T00:20:06.641Z,44.11
2023-05-18T00:22:52.019Z,43.95
2023-05-18T00:25:37.476Z,44.27
2023-05-18T00:28:22.883Z,43.54
2023-05-18T00:31:08.324Z,44.08
2023-05-18T00:33:53.855Z,43.88
2023-05-18T00:36:38.978Z,44.12
2023-05-18T00:39:24.313Z,43.98
2023-05-18T00:42:09.623Z,43.94
2023-05-18T00:44:55.002Z,43.65
2023-05-18T00:47:40.462Z,43.88
2023-05-18T00:50:25.649Z,43.97
2023-05-18T00:53:11.184Z,43.97
2023-05-18T00:55:56.315Z,43.74
2023-05-18T00:58:41.376Z,43.72
2023-05-18T01:01:26.518Z,43.33
2023-05-18T01:04:12.108Z,43.78
2023-05-18T01:06:57.668Z,43.71
2023-05-18T01:09:43.071Z,43.69
2023-05-18T01:12:28.464Z,43.42
2023-05-18T01:15:13.798Z,44.03
2023-05-18T01:17:59.361Z,43.10
2023-05-18T01:20:44.575Z,43.17
2023-05-18T01:23:29.902Z,43.92
2023-05-18T01:26:15.279Z,43.10
2023-05-18T01:29:00.634Z,43.35
2023-05-18T01:31:46.170Z,43.57
2023-05-18T01:34:31.540Z,43.87
2023-05-18T01:37:17.115Z,43.82
2023-05-18T01:40:02.628Z,43.79
2023-05-18T01:42:47.860Z,43.54
2023-05-18T01:45:33.383Z,43.34
2023-05-18T01:48:18.694Z,43.43
2023-05-18T01:51:04.100Z,43.43
2023-05-18T01:53:49.558Z,43.37
2023-05-18T01:56:34.798Z,43.86
2023-05-18T01:59:20.143Z,43.60
2023-05-18T02:02:05.704Z,43.33
2023-05-18T02:04:51.047Z,43.71
2023-05-18T02:07:36.547Z,43.08
2023-05-18T02:10:21.748Z,43.36
2023-05-18T02:13:07.293Z,43.32
2023-05-18T02:15:52.705Z,43.56
2023-05-18T02:18:38.048Z,43.68
2023-05-18T02:21:23.468Z,43.77
2023-05-18T02:24:08.861Z,43.49
2023-05-18T02:26:53.998Z,43.49
2023-05-18T02:29:39.408Z,43.10
2023-05-18T02:32:24.814Z,43.59
2023-05-18T02:35:10.246Z,43.50
2023-05-18T02:37:55.667Z,42.73
2023-05-18T02:40:41.173Z,43.09
2023-05-18T02:43:26.605Z,43.57
2023-05-18T02:46:12.065Z,43.18
2023-05-18T02:48:57.256Z,43.03
2023-05-18T02:51:42.981Z,43.32
2023-05-18T02:54:28.457Z,43.62
2023-05-18T02:57:13.987Z,43.64
2023-05-18T02:59:59.381Z,43.47
2023-05-18T03:02:44.611Z,43.40
2023-05-18T03:05:30.392Z,43.48
2023-05-18T03:08:15.512Z,43.75
2023-05-18T03:11:00.860Z,43.61
2023-05-18T03:13:46.250Z,43.35
2023-05-18T03:16:31.622Z,43.16
2023-05-18T03:19:17.114Z,43.35
2023-05-18T03:22:02.627Z,43.59
2023-05-18T03:24:48.049Z,43.04
2023-05-18T03:27:33.436Z,43.46
2023-05-18T03:30:18.631Z,43.45
2023-05-18T03:33:04.109Z,43.86
2023-05-18T03:35:49.449Z,43.12
2023-05-18T03:38:34.860Z,43.13
2023-05-18T03:41:20.159Z,43.43
2023-05-18T03:44:05.429Z,43.36
2023-05-18T03:46:51.013Z,43.39
2023-05-18T03:49:36.082Z,43.13
2023-05-18T03:52:21.467Z,43.41
2023-05-18T03:55:06.621Z,43.50
2023-05-18T03:57:51.785Z,43.29
2023-05-18T04:00:37.220Z,43.40
2023-05-18T04:03:22.747Z,43.31
2023-05-18T04:06:08.174Z,43.20
2023-05-18T04:08:53.600Z,43.03
2023-05-18T04:11:39.120Z,43.16
2023-05-18T04:14:24.560Z,43.01
2023-05-18T04:17:09.821Z,42.95
2023-05-18T04:19:55.106Z,42.87
2023-05-18T04:22:40.468Z,43.30
2023-05-18T04:25:25.657Z,42.95
2023-05-18T04:28:10.940Z,43.08
2023-05-18T04:30:56.377Z,42.64
2023-05-18T04:33:41.867Z,43.14
2023-05-18T04:36:27.054Z,43.09
2023-05-18T04:39:12.436Z,43.15
2023-05-18T04:41:57.680Z,42.98
2023-05-18T04:44:43.118Z,43.83
2023-05-18T04:47:28.572Z,43.53
2023-05-18T04:50:13.878Z,42.95
2023-05-18T04:52:59.385Z,43.55
2023-05-18T04:55:44.807Z,43.15
2023-05-18T04:58:30.646Z,42.67
2023-05-18T05:01:16.077Z,43.09
2023-05-18T05:04:01.382Z,45.04
2023-05-18T05:06:46.666Z,44.10
2023-05-18T05:09:31.951Z,44.73
2023-05-18T05:12:17.355Z,45.37
2023-05-18T05:15:02.523Z,45.31
2023-05-18T05:17:47.979Z,44.96
2023-05-18T05:20:33.248Z,44.73
2023-05-18T05:23:18.603Z,44.54
2023-05-18T05:26:03.864Z,44.08
2023-05-18T05:28:49.021Z,45.44
2023-05-18T05:31:34.339Z,45.29
2023-05-18T05:34:19.561Z,45.10
2023-05-18T05:37:04.940Z,44.49
2023-05-18T05:39:50.342Z,44.33
2023-05-18T05:42:35.711Z,45.10
2023-05-18T05:45:21.142Z,44.50
2023-05-18T05:48:06.415Z,44.77
2023-05-18T05:50:51.886Z,44.18
2023-05-18T05:53:37.350Z,44.70
2023-05-18T05:56:22.660Z,44.73
2023-05-18T05:59:07.747Z,44.37
2023-05-18T06:01:52.871Z,44.63
2023-05-18T06:04:38.330Z,43.95
2023-05-18T06:07:23.601Z,45.17
2023-05-18T06:10:09.032Z,44.51
2023-05-18T06:12:54.387Z,44.18
2023-05-18T06:15:39.799Z,44.69
2023-05-18T06:18:25.072Z,44.69
2023-05-18T06:21:10.473Z,44.31
2023-05-18T06:23:55.812Z,44.45
2023-05-18T06:26:41.031Z,44.54
2023-05-18T06:29:26.488Z,45.39
2023-05-18T06:32:12.050Z,45.12
2023-05-18T06:34:57.254Z,45.03
2023-05-18T06:37:43.136Z,44.64
2023-05-18T06:40:28.904Z,44.57
2023-05-18T06:43:14.224Z,44.73
2023-05-18T06:45:59.570Z,44.40
2023-05-18T06:48:44.681Z,44.30
2023-05-18T06:51:29.756Z,44.52
2023-05-18T06:54:14.583Z,44.59
2023-05-18T06:56:59.964Z,44.26
2023-05-18T06:59:45.156Z,44.24
2023-05-18T07:02:30.379Z,44.37
2023-05-18T07:05:15.881Z,44.22
2023-05-18T07:08:01.234Z,45.01
2023-05-18T07:10:46.590Z,45.39
2023-05-18T07:13:31.933Z,45.64
2023-05-18T07:16:17.228Z,45.10
2023-05-18T07:19:02.626Z,46.52
2023-05-18T07:21:47.836Z,46.71
2023-05-18T07:24:33.231Z,46.95
2023-05-18T07:27:18.522Z,46.14
2023-05-18T07:30:03.896Z,46.45
2023-05-18T07:32:49.179Z,47.26
2023-05-18T07:35:34.376Z,47.34
2023-05-18T07:38:19.439Z,48.06
2023-05-18T07:41:04.904Z,48.07
2023-05-18T07:43:50.241Z,47.55
2023-05-18T07:46:35.606Z,47.32
2023-05-18T07:49:20.879Z,46.84
2023-05-18T07:52:06.308Z,47.00
2023-05-18T07:54:51.595Z,46.70
2023-05-18T07:57:37.053Z,46.45
2023-05-18T08:00:22.388Z,46.21
2023-05-18T08:03:07.825Z,46.41
2023-05-18T08:05:53.149Z,47.00
2023-05-18T08:08:38.282Z,47.16
2023-05-18T08:11:23.726Z,47.43
2023-05-18T08:14:09.029Z,47.20
2023-05-18T08:16:54.495Z,47.07
2023-05-18T08:19:41.819Z,46.47
2023-05-18T08:22:27.661Z,46.58
2023-05-18T08:25:13.106Z,46.47
2023-05-18T08:27:58.438Z,46.18
2023-05-18T08:30:43.828Z,46.27
2023-05-18T08:33:29.187Z,46.41
2023-05-18T08:36:14.468Z,46.23
2023-05-18T08:38:59.945Z,45.38
2023-05-18T08:41:45.309Z,45.65
2023-05-18T08:44:30.787Z,46.48
2023-05-18T08:47:15.856Z,46.75
2023-05-18T08:50:01.166Z,46.22
2023-05-18T08:52:46.444Z,45.93
2023-05-18T08:55:32.022Z,45.71
2023-05-18T08:58:17.478Z,45.51
2023-05-18T09:01:02.760Z,45.49
2023-05-18T09:03:48.112Z,46.03
2023-05-18T09:06:33.327Z,45.92
2023-05-18T09:09:18.677Z,45.75
2023-05-18T09:12:04.196Z,45.17
2023-05-18T09:14:49.501Z,46.15
2023-05-18T09:17:34.886Z,45.60
2023-05-18T09:20:20.146Z,45.25
2023-05-18T09:23:05.545Z,44.82
2023-05-18T09:25:50.815Z,45.28
2023-05-18T09:28:35.876Z,45.17
2023-05-18T09:31:21.126Z,44.99
2023-05-18T09:34:06.371Z,45.13
2023-05-18T09:36:51.598Z,45.62
2023-05-18T09:39:36.887Z,44.94
2023-05-18T09:42:24.128Z,45.36
2023-05-18T09:45:09.392Z,45.22
2023-05-18T09:47:54.772Z,45.94
2023-05-18T09:50:40.034Z,44.42
2023-05-18T09:53:25.132Z,44.61
2023-05-18T09:56:10.354Z,44.69
2023-05-18T09:58:55.811Z,44.23
2023-05-18T10:01:41.208Z,44.90
2023-05-18T10:04:26.534Z,44.58
2023-05-18T10:07:11.865Z,45.14
2023-05-18T10:09:57.284Z,44.90
2023-05-18T10:12:42.541Z,44.90
2023-05-18T10:15:27.978Z,44.30
2023-05-18T10:18:13.440Z,44.28
2023-05-18T10:21:00.022Z,44.57
2023-05-18T10:23:45.389Z,45.56
2023-05-18T10:26:30.857Z,45.77
2023-05-18T10:29:16.269Z,45.80
2023-05-18T10:32:03.380Z,46.83
2023-05-18T10:34:50.532Z,47.68
2023-05-18T10:37:35.944Z,49.17
2023-05-18T10:40:21.366Z,48.55
2023-05-18T10:43:06.635Z,48.36
2023-05-18T10:45:52.247Z,48.14
2023-05-18T10:48:37.663Z,47.25
2023-05-18T10:51:22.854Z,47.88
2023-05-18T10:54:08.443Z,46.66
2023-05-18T10:56:53.510Z,47.50
2023-05-18T10:59:39.669Z,46.41
2023-05-18T11:02:26.229Z,47.10
2023-05-18T11:05:11.947Z,47.16
2023-05-18T11:07:57.066Z,47.46
2023-05-18T11:10:42.435Z,48.51
2023-05-18T11:13:27.915Z,46.82
2023-05-18T11:16:13.442Z,45.36
2023-05-18T11:18:58.822Z,40.51
2023-05-18T11:21:44.118Z,43.59
2023-05-18T11:24:29.338Z,43.94
2023-05-18T11:27:14.727Z,43.79
2023-05-18T11:30:11.733Z,43.57
2023-05-18T11:33:00.625Z,42.95
2023-05-18T11:35:45.678Z,43.05
2023-05-18T11:38:31.020Z,43.16
2023-05-18T11:41:16.482Z,43.21
2023-05-18T11:44:01.641Z,42.63
2023-05-18T11:46:47.110Z,42.48
2023-05-18T11:49:32.418Z,42.50
2023-05-18T11:52:18.545Z,42.45
2023-05-18T11:55:03.837Z,42.11
2023-05-18T11:57:49.236Z,42.15
2023-05-18T12:00:34.539Z,42.51
2023-05-18T12:03:19.967Z,42.34
2023-05-18T12:06:05.341Z,42.56
2023-05-18T12:08:50.484Z,42.91
2023-05-18T12:11:35.807Z,42.29
2023-05-18T12:14:21.088Z,42.62
2023-05-18T12:17:06.235Z,43.06
2023-05-18T12:19:51.493Z,43.42
2023-05-18T12:22:36.559Z,43.87
2023-05-18T12:25:22.161Z,43.99
2023-05-18T12:28:07.420Z,43.91
2023-05-18T12:30:52.570Z,44.29
2023-05-18T12:33:37.883Z,44.38
2023-05-18T12:36:23.241Z,43.97
2023-05-18T12:39:08.567Z,44.07
2023-05-18T12:41:53.814Z,43.68
2023-05-18T12:44:39.224Z,44.12
2023-05-18T12:47:24.591Z,44.28
2023-05-18T12:50:10.030Z,44.33
2023-05-18T12:52:55.401Z,44.77
2023-05-18T12:55:40.588Z,44.64
2023-05-18T12:58:25.809Z,45.04
2023-05-18T13:01:11.325Z,44.73
2023-05-18T13:03:56.652Z,45.02
2023-05-18T13:06:42.004Z,43.99
2023-05-18T13:09:27.459Z,45.33
2023-05-18T13:12:13.050Z,44.08
2023-05-18T13:14:58.266Z,44.70
2023-05-18T13:17:43.609Z,45.91
2023-05-18T13:20:28.923Z,48.29
2023-05-18T13:23:14.132Z,48.27
2023-05-18T13:25:59.549Z,48.41
2023-05-18T13:28:44.791Z,48.73
2023-05-18T13:31:30.098Z,48.28
2023-05-18T13:34:15.265Z,47.94
2023-05-18T13:37:00.616Z,49.14
2023-05-18T13:39:46.210Z,48.28
2023-05-18T13:42:31.377Z,47.81
2023-05-18T13:45:16.748Z,48.18
2023-05-18T13:48:02.101Z,47.73
2023-05-18T13:50:47.568Z,48.14
2023-05-18T13:53:32.910Z,48.10
2023-05-18T13:56:18.100Z,48.65
2023-05-18T13:59:03.577Z,47.95
2023-05-18T14:01:48.799Z,47.90
2023-05-18T14:04:34.099Z,47.80
2023-05-18T14:07:19.360Z,47.68
2023-05-18T14:10:04.889Z,47.71
2023-05-18T14:12:50.271Z,40.34
2023-05-18T14:15:35.506Z,38.90
2023-05-18T14:18:21.008Z,35.89
2023-05-18T14:21:06.251Z,36.28
2023-05-18T14:23:51.597Z,36.84
2023-05-18T14:26:36.954Z,35.67
2023-05-18T14:29:22.332Z,36.12
2023-05-18T14:32:07.721Z,35.41
2023-05-18T14:34:52.944Z,35.67
2023-05-18T14:37:38.378Z,35.00
2023-05-18T14:40:23.778Z,34.92
2023-05-18T14:43:09.141Z,35.73
2023-05-18T14:46:07.413Z,35.20
2023-05-18T14:48:52.951Z,34.25
2023-05-18T14:51:38.454Z,34.10
2023-05-18T14:54:23.856Z,34.40
2023-05-18T14:57:09.221Z,34.48
2023-05-18T14:59:54.489Z,34.13
2023-05-18T15:02:39.948Z,33.88
2023-05-18T15:05:25.520Z,34.83
2023-05-18T15:08:10.823Z,34.52
2023-05-18T15:10:56.408Z,33.26
2023-05-18T15:13:41.675Z,32.90
2023-05-18T15:16:27.583Z,32.78
2023-05-18T15:19:13.247Z,31.88
2023-05-18T15:21:58.619Z,32.61
2023-05-18T15:24:44.248Z,32.53
2023-05-18T15:27:29.480Z,33.33
2023-05-18T15:30:14.540Z,33.93
2023-05-18T15:32:59.922Z,34.14
2023-05-18T15:35:45.257Z,33.65
2023-05-18T15:38:30.651Z,33.46
2023-05-18T15:41:15.871Z,33.68
2023-05-18T15:44:01.216Z,33.42
2023-05-18T15:46:46.455Z,32.95
2023-05-18T15:49:31.969Z,34.04
2023-05-18T15:52:18.467Z,34.06
2023-05-18T15:55:03.517Z,34.93
2023-05-18T15:57:48.954Z,33.96
2023-05-18T16:00:34.294Z,34.26
2023-05-18T16:03:19.800Z,34.60
2023-05-18T16:06:05.013Z,33.99
2023-05-18T16:08:53.502Z,34.42
2023-05-18T16:11:39.082Z,36.36
2023-05-18T16:14:24.488Z,35.47
2023-05-18T16:17:10.292Z,35.91
2023-05-18T16:19:56.062Z,35.68
2023-05-18T16:22:41.513Z,36.69
2023-05-18T16:25:26.946Z,36.32
2023-05-18T16:28:12.364Z,35.96
2023-05-18T16:30:57.736Z,36.90
2023-05-18T16:33:43.158Z,36.71
2023-05-18T16:36:28.485Z,36.41
2023-05-18T16:39:13.908Z,37.09
2023-05-18T16:41:59.169Z,37.23
2023-05-18T16:44:44.552Z,37.39
2023-05-18T16:47:29.987Z,37.23
2023-05-18T16:50:15.389Z,37.61
2023-05-18T16:53:01.059Z,37.62
2023-05-18T16:55:46.415Z,37.89
2023-05-18T16:58:31.806Z,38.04
2023-05-18T17:01:27.303Z,37.85
2023-05-18T17:04:14.539Z,38.14
2023-05-18T17:06:59.807Z,38.24
2023-05-18T17:09:45.159Z,37.85
2023-05-18T17:12:30.590Z,38.26
2023-05-18T17:15:15.902Z,38.43
2023-05-18T17:18:01.542Z,38.01
2023-05-18T17:20:46.820Z,38.38
2023-05-18T17:23:32.295Z,38.22
2023-05-18T17:26:17.649Z,38.29
2023-05-18T17:29:02.914Z,38.37
2023-05-18T17:31:48.525Z,38.28
2023-05-18T17:34:33.728Z,38.29
2023-05-18T17:37:19.063Z,38.45
2023-05-18T17:40:04.433Z,38.77
2023-05-18T17:42:49.706Z,38.69
2023-05-18T17:45:35.198Z,38.58
2023-05-18T17:48:20.509Z,38.48
2023-05-18T17:51:05.915Z,38.86
2023-05-18T17:53:51.197Z,38.58
2023-05-18T17:56:36.744Z,38.90
2023-05-18T17:59:22.046Z,39.02
2023-05-18T18:02:07.472Z,39.29
2023-05-18T18:04:52.941Z,38.95
2023-05-18T18:07:40.688Z,38.58
2023-05-18T18:10:25.841Z,39.11
2023-05-18T18:13:11.326Z,38.91
2023-05-18T18:15:56.617Z,39.07
2023-05-18T18:18:42.162Z,38.84
2023-05-18T18:21:27.293Z,39.27
2023-05-18T18:24:12.589Z,39.14
2023-05-18T18:26:58.102Z,38.95
2023-05-18T18:29:43.278Z,39.09
2023-05-18T18:32:28.886Z,39.02
2023-05-18T18:35:14.130Z,39.33
2023-05-18T18:37:59.659Z,39.31
2023-05-18T18:40:45.068Z,39.33
2023-05-18T18:43:30.589Z,39.58
2023-05-18T18:46:16.125Z,39.54
2023-05-18T18:49:01.519Z,39.44
2023-05-18T18:51:46.992Z,39.32
2023-05-18T18:54:32.393Z,39.45
2023-05-18T18:57:17.869Z,39.42
2023-05-18T19:00:03.406Z,39.21
2023-05-18T19:02:48.913Z,39.55
2023-05-18T19:05:34.596Z,39.64
2023-05-18T19:08:20.022Z,39.43
2023-05-18T19:11:05.143Z,39.48
2023-05-18T19:13:50.606Z,39.29
2023-05-18T19:16:35.929Z,39.37
2023-05-18T19:19:21.447Z,39.67
2023-05-18T19:22:06.799Z,39.82
2023-05-18T19:24:52.036Z,39.50
2023-05-18T19:27:37.505Z,39.93
2023-05-18T19:30:22.855Z,39.57
2023-05-18T19:33:08.271Z,39.95
2023-05-18T19:35:53.622Z,39.55
2023-05-18T19:38:38.890Z,39.73
2023-05-18T19:41:24.839Z,40.07
2023-05-18T19:44:10.088Z,39.46
2023-05-18T19:46:55.452Z,39.64
2023-05-18T19:49:40.806Z,40.02
2023-05-18T19:52:26.334Z,40.29
2023-05-18T19:55:11.698Z,39.98
2023-05-18T19:57:57.005Z,39.88
2023-05-18T20:00:42.272Z,40.04
2023-05-18T20:03:27.824Z,40.21
2023-05-18T20:06:12.937Z,40.08
2023-05-18T20:08:58.192Z,39.94
2023-05-18T20:11:43.658Z,40.65
2023-05-18T20:14:31.288Z,40.15
2023-05-18T20:17:16.235Z,40.43
2023-05-18T20:20:01.853Z,40.05
2023-05-18T20:22:47.174Z,40.41
2023-05-18T20:25:32.558Z,40.28
2023-05-18T20:28:17.876Z,40.39
2023-05-18T20:31:03.291Z,40.21
2023-05-18T20:33:48.500Z,39.97
2023-05-18T20:36:33.895Z,40.09
2023-05-18T20:39:19.449Z,40.01
2023-05-18T20:42:04.570Z,39.75
2023-05-18T20:44:50.090Z,40.77
2023-05-18T20:47:35.319Z,40.72
2023-05-18T20:50:20.709Z,41.12
2023-05-18T20:53:06.105Z,40.85
2023-05-18T20:55:51.414Z,40.48
2023-05-18T20:58:37.021Z,40.92
2023-05-18T21:01:22.400Z,40.74
2023-05-18T21:04:08.037Z,40.48
2023-05-18T21:06:54.527Z,40.70
2023-05-18T21:09:39.763Z,40.45
2023-05-18T21:12:25.234Z,40.60
2023-05-18T21:15:10.620Z,40.30
2023-05-18T21:17:56.028Z,40.52
2023-05-18T21:20:41.267Z,40.44
2023-05-18T21:23:26.611Z,40.14
2023-05-18T21:26:11.999Z,40.71
2023-05-18T21:28:57.449Z,40.75
2023-05-18T21:31:42.885Z,40.63
2023-05-18T21:34:28.023Z,40.66
2023-05-18T21:37:13.299Z,40.97
2023-05-18T21:39:58.749Z,40.72
2023-05-18T21:42:43.904Z,40.94
2023-05-18T21:45:29.435Z,40.75
2023-05-18T21:48:14.862Z,40.52
2023-05-18T21:51:00.218Z,40.75
2023-05-18T21:53:45.643Z,40.59
2023-05-18T21:56:30.920Z,40.90
2023-05-18T21:59:16.385Z,41.17
2023-05-18T22:02:01.682Z,40.50
2023-05-18T22:04:47.158Z,40.77
2023-05-18T22:07:32.591Z,40.70
2023-05-18T22:10:18.970Z,40.62
2023-05-18T22:13:04.471Z,41.03
2023-05-18T22:15:49.816Z,41.09
2023-05-18T22:18:35.290Z,40.63
2023-05-18T22:21:20.610Z,40.85
2023-05-18T22:24:05.988Z,40.78
2023-05-18T22:26:51.332Z,40.58
2023-05-18T22:29:36.651Z,41.13
2023-05-18T22:32:22.064Z,40.79
2023-05-18T22:35:07.459Z,41.03
2023-05-18T22:37:52.653Z,40.77
2023-05-18T22:40:38.117Z,40.95
2023-05-18T22:43:23.323Z,40.75
2023-05-18T22:46:08.666Z,40.93
2023-05-18T22:48:54.056Z,41.13
2023-05-18T22:51:39.199Z,41.03
2023-05-18T22:54:24.555Z,41.10
2023-05-18T22:57:09.971Z,40.53
2023-05-18T22:59:55.398Z,41.14
2023-05-18T23:02:40.787Z,41.31
2023-05-18T23:05:26.144Z,40.81
2023-05-18T23:08:11.641Z,41.13
2023-05-18T23:10:56.782Z,40.97
2023-05-18T23:13:42.123Z,40.96
2023-05-18T23:16:27.405Z,40.78
2023-05-18T23:19:12.855Z,40.83
2023-05-18T23:21:59.009Z,40.76
2023-05-18T23:24:44.406Z,41.30
2023-05-18T23:27:29.853Z,41.16
2023-05-18T23:30:15.183Z,40.65
2023-05-18T23:33:00.698Z,40.68
2023-05-18T23:35:45.835Z,41.12
2023-05-18T23:38:31.221Z,41.33
2023-05-18T23:41:16.584Z,41.25
2023-05-18T23:44:01.861Z,41.51
2023-05-18T23:46:47.451Z,41.15
2023-05-18T23:49:32.845Z,41.50
2023-05-18T23:52:18.355Z,41.39
2023-05-18T23:55:03.728Z,41.35
2023-05-18T23:57:48.961Z,41.16
